createdAt,value
2022-08-19T00:01:53.471Z,22.65
2022-08-19T00:04:24.221Z,22.61
2022-08-19T00:06:52.828Z,22.54
2022-08-19T00:09:24.267Z,22.61
2022-08-19T00:11:52.450Z,22.49
2022-08-19T00:14:21.506Z,22.56
2022-08-19T00:16:50.055Z,22.52
2022-08-19T00:19:19.025Z,22.43
2022-08-19T00:21:46.892Z,22.55
2022-08-19T00:24:16.368Z,22.55
2022-08-19T00:26:46.722Z,22.52
2022-08-19T00:29:16.409Z,22.48
2022-08-19T00:31:44.757Z,22.47
2022-08-19T00:34:13.266Z,22.43
2022-08-19T00:36:41.601Z,22.40
2022-08-19T00:39:10.077Z,22.39
2022-08-19T00:41:38.105Z,22.34
2022-08-19T00:44:10.170Z,22.35
2022-08-19T00:46:40.648Z,22.33
2022-08-19T00:49:15.482Z,22.27
2022-08-19T00:51:45.935Z,22.34
2022-08-19T00:54:14.583Z,22.33
2022-08-19T00:56:43.268Z,22.31
2022-08-19T00:59:13.091Z,22.27
2022-08-19T01:01:44.049Z,22.27
2022-08-19T01:04:12.005Z,22.24
2022-08-19T01:06:41.918Z,22.15
2022-08-19T01:09:11.004Z,22.20
2022-08-19T01:11:43.808Z,22.18
2022-08-19T01:14:14.272Z,22.21
2022-08-19T01:16:44.040Z,22.19
2022-08-19T01:19:17.650Z,22.17
2022-08-19T01:21:53.560Z,22.18
2022-08-19T01:24:22.844Z,22.08
2022-08-19T01:26:50.619Z,22.15
2022-08-19T01:29:18.791Z,22.12
2022-08-19T01:31:48.019Z,22.06
2022-08-19T01:34:15.838Z,22.09
2022-08-19T01:36:46.585Z,22.05
2022-08-19T01:39:18.399Z,22.02
2022-08-19T01:41:48.047Z,22.01
2022-08-19T01:44:19.143Z,21.98
2022-08-19T01:46:49.122Z,21.91
2022-08-19T01:49:18.004Z,21.95
2022-08-19T01:51:45.995Z,21.97
2022-08-19T01:54:23.066Z,21.98
2022-08-19T01:57:02.247Z,22.00
2022-08-19T01:59:30.506Z,22.00
2022-08-19T02:01:58.616Z,21.95
2022-08-19T02:04:27.190Z,22.00
2022-08-19T02:06:55.035Z,21.91
2022-08-19T02:09:22.940Z,21.92
2022-08-19T02:11:50.772Z,21.90
2022-08-19T02:14:19.999Z,21.88
2022-08-19T02:16:47.766Z,21.86
2022-08-19T02:19:15.537Z,21.85
2022-08-19T02:21:44.340Z,21.89
2022-08-19T02:24:13.152Z,21.88
2022-08-19T02:26:40.993Z,21.90
2022-08-19T02:29:09.758Z,21.92
2022-08-19T02:31:38.959Z,21.91
2022-08-19T02:34:06.860Z,21.88
2022-08-19T02:36:34.783Z,21.87
2022-08-19T02:39:01.812Z,21.83
2022-08-19T02:41:31.913Z,21.74
2022-08-19T02:44:30.826Z,21.80
2022-08-19T02:46:51.868Z,21.86
2022-08-19T02:49:21.451Z,21.88
2022-08-19T02:51:49.347Z,21.88
2022-08-19T02:54:17.472Z,21.83
2022-08-19T02:56:45.913Z,21.75
2022-08-19T02:59:13.786Z,21.68
2022-08-19T03:01:43.510Z,21.76
2022-08-19T03:04:16.446Z,21.77
2022-08-19T03:06:47.956Z,21.76
2022-08-19T03:09:16.818Z,21.64
2022-08-19T03:11:44.737Z,21.74
2022-08-19T03:14:13.760Z,21.76
2022-08-19T03:16:45.020Z,21.70
2022-08-19T03:19:15.072Z,21.70
2022-08-19T03:21:45.526Z,21.72
2022-08-19T03:24:14.484Z,21.67
2022-08-19T03:26:44.347Z,21.62
2022-08-19T03:29:13.253Z,21.66
2022-08-19T03:31:52.261Z,21.62
2022-08-19T03:34:27.198Z,21.57
2022-08-19T03:36:56.356Z,21.47
2022-08-19T03:39:25.518Z,21.53
2022-08-19T03:42:31.844Z,21.55
2022-08-19T03:44:46.656Z,21.47
2022-08-19T03:47:16.993Z,21.50
2022-08-19T03:49:46.671Z,21.50
2022-08-19T03:52:15.207Z,21.54
2022-08-19T03:54:43.235Z,21.55
2022-08-19T03:57:12.130Z,21.53
2022-08-19T03:59:40.342Z,21.44
2022-08-19T04:02:11.589Z,21.46
2022-08-19T04:04:40.739Z,21.48
2022-08-19T04:07:11.006Z,21.53
2022-08-19T04:09:39.305Z,21.52
2022-08-19T04:12:07.903Z,21.42
2022-08-19T04:14:36.697Z,21.53
2022-08-19T04:17:06.720Z,21.57
2022-08-19T04:19:35.501Z,21.53
2022-08-19T04:22:04.024Z,21.51
2022-08-19T04:24:33.917Z,21.56
2022-08-19T04:27:02.988Z,21.58
2022-08-19T04:29:31.224Z,21.59
2022-08-19T04:32:09.264Z,21.54
2022-08-19T04:35:01.153Z,21.27
2022-08-19T04:37:29.451Z,21.55
2022-08-19T04:40:32.825Z,21.54
2022-08-19T04:43:01.987Z,21.56
2022-08-19T04:45:30.664Z,21.44
2022-08-19T04:48:19.634Z,21.32
2022-08-19T04:50:58.532Z,21.35
2022-08-19T04:53:29.721Z,21.49
2022-08-19T04:56:09.817Z,21.44
2022-08-19T04:58:39.631Z,21.52
2022-08-19T05:01:07.687Z,21.34
2022-08-19T05:03:35.665Z,21.49
2022-08-19T05:06:08.387Z,21.55
2022-08-19T05:08:37.803Z,21.49
2022-08-19T05:11:14.985Z,21.57
2022-08-19T05:13:43.370Z,21.56
2022-08-19T05:16:13.074Z,21.58
2022-08-19T05:18:59.238Z,21.63
2022-08-19T05:21:45.148Z,21.66
2022-08-19T05:24:13.751Z,21.71
2022-08-19T05:26:46.501Z,21.75
2022-08-19T05:29:15.795Z,21.74
2022-08-19T05:31:44.107Z,21.74
2022-08-19T05:34:20.075Z,21.83
2022-08-19T05:36:48.632Z,21.74
2022-08-19T05:39:22.341Z,21.78
2022-08-19T05:41:54.368Z,21.75
2022-08-19T05:44:23.032Z,21.82
2022-08-19T05:46:53.814Z,21.81
2022-08-19T05:49:23.933Z,21.82
2022-08-19T05:51:52.193Z,21.72
2022-08-19T05:54:21.180Z,21.76
2022-08-19T05:56:49.547Z,21.80
2022-08-19T05:59:20.455Z,21.81
2022-08-19T06:01:51.503Z,21.39
2022-08-19T06:04:21.569Z,21.80
2022-08-19T06:06:53.774Z,21.81
2022-08-19T06:09:23.171Z,21.75
2022-08-19T06:11:56.045Z,21.77
2022-08-19T06:14:28.162Z,21.89
2022-08-19T06:16:56.410Z,21.83
2022-08-19T06:19:27.226Z,21.85
2022-08-19T06:21:55.722Z,21.90
2022-08-19T06:24:26.316Z,21.78
2022-08-19T06:26:59.199Z,21.93
2022-08-19T06:29:33.210Z,21.81
2022-08-19T06:32:05.057Z,21.92
2022-08-19T06:34:36.333Z,21.85
2022-08-19T06:37:06.814Z,21.16
2022-08-19T06:39:36.631Z,21.75
2022-08-19T06:42:08.005Z,21.94
2022-08-19T06:44:43.785Z,21.99
2022-08-19T06:47:23.802Z,22.02
2022-08-19T06:50:01.341Z,21.91
2022-08-19T06:52:31.569Z,22.01
2022-08-19T06:55:06.375Z,22.02
2022-08-19T06:57:35.447Z,21.99
2022-08-19T07:00:13.180Z,22.01
2022-08-19T07:02:42.621Z,22.03
2022-08-19T07:05:11.773Z,22.02
2022-08-19T07:07:44.092Z,21.86
2022-08-19T07:10:15.647Z,22.04
2022-08-19T07:12:45.358Z,22.11
2022-08-19T07:15:16.975Z,22.03
2022-08-19T07:17:52.556Z,22.09
2022-08-19T07:20:21.275Z,22.19
2022-08-19T07:22:49.307Z,22.23
2022-08-19T07:25:19.466Z,22.21
2022-08-19T07:27:54.214Z,22.22
2022-08-19T07:30:26.260Z,22.22
2022-08-19T07:32:54.675Z,22.23
2022-08-19T07:35:22.865Z,22.24
2022-08-19T07:37:50.714Z,21.96
2022-08-19T07:40:18.691Z,22.19
2022-08-19T07:42:46.849Z,22.18
2022-08-19T07:45:14.780Z,22.19
2022-08-19T07:47:50.390Z,22.24
2022-08-19T07:50:21.936Z,22.22
2022-08-19T07:52:50.855Z,22.20
2022-08-19T07:55:41.550Z,22.23
2022-08-19T07:58:12.221Z,22.24
2022-08-19T08:00:40.301Z,22.24
2022-08-19T08:03:10.561Z,21.50
2022-08-19T08:05:55.815Z,22.35
2022-08-19T08:08:37.695Z,22.38
2022-08-19T08:11:13.414Z,22.42
2022-08-19T08:13:43.701Z,22.40
2022-08-19T08:16:13.929Z,22.34
2022-08-19T08:18:50.729Z,22.39
2022-08-19T08:21:21.152Z,22.36
2022-08-19T08:23:49.129Z,22.43
2022-08-19T08:26:19.291Z,22.51
2022-08-19T08:28:49.634Z,22.50
2022-08-19T08:31:19.478Z,22.61
2022-08-19T08:33:49.512Z,22.63
2022-08-19T08:36:18.026Z,22.68
2022-08-19T08:38:47.568Z,22.71
2022-08-19T08:41:24.532Z,22.67
2022-08-19T08:43:54.545Z,22.79
2022-08-19T08:46:31.472Z,22.86
2022-08-19T08:49:08.482Z,22.95
2022-08-19T08:51:47.567Z,22.81
2022-08-19T08:54:20.020Z,23.07
2022-08-19T08:56:50.343Z,23.14
2022-08-19T08:59:25.465Z,23.26
2022-08-19T09:01:53.461Z,23.37
2022-08-19T09:04:23.489Z,23.47
2022-08-19T09:07:17.918Z,23.53
2022-08-19T09:09:56.139Z,23.53
2022-08-19T09:12:33.182Z,23.63
2022-08-19T09:15:05.761Z,23.65
2022-08-19T09:17:36.252Z,23.73
2022-08-19T09:20:09.568Z,23.87
2022-08-19T09:22:38.325Z,23.94
2022-08-19T09:25:08.428Z,23.96
2022-08-19T09:27:43.047Z,23.94
2022-08-19T09:30:16.236Z,23.91
2022-08-19T09:32:45.611Z,23.87
2022-08-19T09:35:16.850Z,23.84
2022-08-19T09:37:45.000Z,23.88
2022-08-19T09:40:15.536Z,23.78
2022-08-19T09:42:49.686Z,23.81
2022-08-19T09:45:22.224Z,23.85
2022-08-19T09:47:51.998Z,23.82
2022-08-19T09:50:24.735Z,23.82
2022-08-19T09:52:57.061Z,23.92
2022-08-19T09:55:31.466Z,23.97
2022-08-19T09:58:03.213Z,24.12
2022-08-19T10:00:32.720Z,24.13
2022-08-19T10:03:01.146Z,24.04
2022-08-19T10:05:48.646Z,24.02
2022-08-19T10:08:18.669Z,23.80
2022-08-19T10:10:49.920Z,24.03
2022-08-19T10:13:21.432Z,24.13
2022-08-19T10:15:51.649Z,23.95
2022-08-19T10:18:22.201Z,24.24
2022-08-19T10:20:53.418Z,24.25
2022-08-19T10:23:21.944Z,24.28
2022-08-19T10:25:50.640Z,24.39
2022-08-19T10:28:19.048Z,24.47
2022-08-19T10:30:47.893Z,24.79
2022-08-19T10:33:27.044Z,25.09
2022-08-19T10:36:09.043Z,25.42
2022-08-19T10:38:37.403Z,25.83
2022-08-19T10:41:11.394Z,26.10
2022-08-19T10:43:40.633Z,26.18
2022-08-19T10:46:14.187Z,26.02
2022-08-19T10:48:45.727Z,25.81
2022-08-19T10:51:32.283Z,25.71
2022-08-19T10:54:01.128Z,25.67
2022-08-19T10:56:46.800Z,25.55
2022-08-19T10:59:15.118Z,25.37
2022-08-19T11:01:44.770Z,25.38
2022-08-19T11:04:14.483Z,25.89
2022-08-19T11:06:44.512Z,25.97
2022-08-19T11:09:13.301Z,26.06
2022-08-19T11:11:41.704Z,26.13
2022-08-19T11:14:10.440Z,26.49
2022-08-19T11:16:39.988Z,26.63
2022-08-19T11:19:09.725Z,26.28
2022-08-19T11:21:42.376Z,26.03
2022-08-19T11:24:14.372Z,26.74
2022-08-19T11:26:48.928Z,27.24
2022-08-19T11:29:18.899Z,27.66
2022-08-19T11:31:49.160Z,27.81
2022-08-19T11:34:20.609Z,27.88
2022-08-19T11:36:49.635Z,28.20
2022-08-19T11:39:21.574Z,28.51
2022-08-19T11:41:50.186Z,28.59
2022-08-19T11:44:18.296Z,29.01
2022-08-19T11:46:49.911Z,29.02
2022-08-19T11:49:20.260Z,29.22
2022-08-19T11:51:49.245Z,29.16
2022-08-19T11:54:19.078Z,29.30
2022-08-19T11:56:50.005Z,29.02
2022-08-19T11:59:19.763Z,29.14
2022-08-19T12:01:47.618Z,28.51
2022-08-19T12:04:15.862Z,28.95
2022-08-19T12:06:46.486Z,29.30
2022-08-19T12:09:15.538Z,29.54
2022-08-19T12:11:45.345Z,29.63
2022-08-19T12:14:16.862Z,29.84
2022-08-19T12:16:52.433Z,29.95
2022-08-19T12:19:25.483Z,30.22
2022-08-19T12:22:03.725Z,30.18
2022-08-19T12:24:33.299Z,30.27
2022-08-19T12:27:05.878Z,30.34
2022-08-19T12:29:48.056Z,30.57
2022-08-19T12:32:17.867Z,30.85
2022-08-19T12:34:48.279Z,30.98
2022-08-19T12:37:16.197Z,30.98
2022-08-19T12:39:44.491Z,31.12
2022-08-19T12:42:15.572Z,31.08
2022-08-19T12:44:47.350Z,31.14
2022-08-19T12:47:16.041Z,31.31
2022-08-19T12:49:54.648Z,31.24
2022-08-19T12:52:26.217Z,31.23
2022-08-19T12:54:56.027Z,31.21
2022-08-19T12:57:34.103Z,31.02
2022-08-19T13:00:13.698Z,31.19
2022-08-19T13:02:47.117Z,31.25
2022-08-19T13:05:21.050Z,30.95
2022-08-19T13:07:57.117Z,30.92
2022-08-19T13:10:28.859Z,31.05
2022-08-19T13:13:00.533Z,31.13
2022-08-19T13:15:29.395Z,31.19
2022-08-19T13:18:00.521Z,30.85
2022-08-19T13:20:28.929Z,31.00
2022-08-19T13:22:58.315Z,31.09
2022-08-19T13:25:27.564Z,31.18
2022-08-19T13:27:56.354Z,31.28
2022-08-19T13:30:43.508Z,31.30
2022-08-19T13:33:16.023Z,31.27
2022-08-19T13:35:48.202Z,30.59
2022-08-19T13:38:18.342Z,30.65
2022-08-19T13:40:47.347Z,30.65
2022-08-19T13:43:23.135Z,30.63
2022-08-19T13:45:54.752Z,30.43
2022-08-19T13:48:23.516Z,30.20
2022-08-19T13:50:51.445Z,30.27
2022-08-19T13:53:20.290Z,30.26
2022-08-19T13:55:48.240Z,30.04
2022-08-19T13:58:16.173Z,29.95
2022-08-19T14:00:47.173Z,30.06
2022-08-19T14:03:17.084Z,30.10
2022-08-19T14:05:44.955Z,30.05
2022-08-19T14:08:15.226Z,30.02
2022-08-19T14:10:45.214Z,30.00
2022-08-19T14:13:16.756Z,29.87
2022-08-19T14:15:44.752Z,29.77
2022-08-19T14:18:12.964Z,29.73
2022-08-19T14:20:42.726Z,29.60
2022-08-19T14:23:11.246Z,29.68
2022-08-19T14:25:39.137Z,29.60
2022-08-19T14:28:08.591Z,29.61
2022-08-19T14:30:38.687Z,29.53
2022-08-19T14:33:09.237Z,29.48
2022-08-19T14:35:37.611Z,29.48
2022-08-19T14:38:09.037Z,29.43
2022-08-19T14:40:36.840Z,29.35
2022-08-19T14:43:06.605Z,29.28
2022-08-19T14:45:37.316Z,29.24
2022-08-19T14:48:05.517Z,29.04
2022-08-19T14:50:34.115Z,29.12
2022-08-19T14:53:09.090Z,29.11
2022-08-19T14:55:44.625Z,29.17
2022-08-19T14:58:28.804Z,29.16
2022-08-19T15:00:59.751Z,29.21
2022-08-19T15:03:27.902Z,29.16
2022-08-19T15:05:57.478Z,29.11
2022-08-19T15:08:25.777Z,29.13
2022-08-19T15:10:55.448Z,29.25
2022-08-19T15:13:23.316Z,29.30
2022-08-19T15:15:52.659Z,29.35
2022-08-19T15:18:22.787Z,29.41
2022-08-19T15:20:51.859Z,29.42
2022-08-19T15:23:21.736Z,29.36
2022-08-19T15:25:52.958Z,29.41
2022-08-19T15:28:22.366Z,29.32
2022-08-19T15:30:50.964Z,29.23
2022-08-19T15:33:20.664Z,29.26
2022-08-19T15:35:51.603Z,29.12
2022-08-19T15:38:21.975Z,29.18
2022-08-19T15:40:51.260Z,29.15
2022-08-19T15:43:21.659Z,29.23
2022-08-19T15:45:51.198Z,29.28
2022-08-19T15:48:19.098Z,29.27
2022-08-19T15:50:47.031Z,29.23
2022-08-19T15:53:14.996Z,29.18
2022-08-19T15:55:45.186Z,29.07
2022-08-19T15:58:32.737Z,29.11
2022-08-19T16:01:21.555Z,29.11
2022-08-19T16:04:14.034Z,28.96
2022-08-19T16:06:45.961Z,28.81
2022-08-19T16:09:14.254Z,28.62
2022-08-19T16:11:46.515Z,28.40
2022-08-19T16:14:15.174Z,28.27
2022-08-19T16:16:46.903Z,28.18
2022-08-19T16:19:16.526Z,27.85
2022-08-19T16:21:46.031Z,27.76
2022-08-19T16:24:17.456Z,27.95
2022-08-19T16:26:46.418Z,27.96
2022-08-19T16:29:15.033Z,27.68
2022-08-19T16:31:57.746Z,27.79
2022-08-19T16:34:25.815Z,27.81
2022-08-19T16:36:54.111Z,27.75
2022-08-19T16:39:22.147Z,27.69
2022-08-19T16:41:50.951Z,27.54
2022-08-19T16:44:20.883Z,27.58
2022-08-19T16:46:55.739Z,27.41
2022-08-19T16:49:52.288Z,27.41
2022-08-19T16:52:16.583Z,27.36
2022-08-19T16:54:44.949Z,27.30
2022-08-19T16:57:13.457Z,27.21
2022-08-19T16:59:48.332Z,27.18
2022-08-19T17:02:17.825Z,27.14
2022-08-19T17:04:57.703Z,27.06
2022-08-19T17:07:26.659Z,27.06
2022-08-19T17:09:55.214Z,27.07
2022-08-19T17:12:23.292Z,27.03
2022-08-19T17:14:58.808Z,27.00
2022-08-19T17:17:29.344Z,26.97
2022-08-19T17:19:58.973Z,26.93
2022-08-19T17:22:27.075Z,26.88
2022-08-19T17:24:57.903Z,26.84
2022-08-19T17:27:27.083Z,26.67
2022-08-19T17:30:00.569Z,26.74
2022-08-19T17:32:28.535Z,26.84
2022-08-19T17:34:56.288Z,26.82
2022-08-19T17:37:25.521Z,26.72
2022-08-19T17:39:53.409Z,26.74
2022-08-19T17:42:21.403Z,26.74
2022-08-19T17:44:50.687Z,26.73
2022-08-19T17:47:19.357Z,26.76
2022-08-19T17:49:47.280Z,26.58
2022-08-19T17:52:15.082Z,26.62
2022-08-19T17:54:44.437Z,26.67
2022-08-19T17:57:14.050Z,26.65
2022-08-19T17:59:44.344Z,26.62
2022-08-19T18:02:12.589Z,26.60
2022-08-19T18:04:48.264Z,26.60
2022-08-19T18:07:21.665Z,26.56
2022-08-19T18:09:52.729Z,26.52
2022-08-19T18:12:24.490Z,26.46
2022-08-19T18:14:52.788Z,25.77
2022-08-19T18:17:23.346Z,26.36
2022-08-19T18:19:51.323Z,26.39
2022-08-19T18:22:26.525Z,26.37
2022-08-19T18:24:57.021Z,26.35
2022-08-19T18:27:25.336Z,26.31
2022-08-19T18:29:54.491Z,26.31
2022-08-19T18:32:24.180Z,26.29
2022-08-19T18:34:52.476Z,26.26
2022-08-19T18:37:20.403Z,26.22
2022-08-19T18:40:05.618Z,26.17
2022-08-19T18:42:52.105Z,26.14
2022-08-19T18:45:37.236Z,26.10
2022-08-19T18:48:27.288Z,26.07
2022-08-19T18:50:56.875Z,25.75
2022-08-19T18:53:25.156Z,25.98
2022-08-19T18:55:53.892Z,25.96
2022-08-19T18:58:26.337Z,25.90
2022-08-19T19:00:57.376Z,25.89
2022-08-19T19:03:26.022Z,25.87
2022-08-19T19:05:54.708Z,25.69
2022-08-19T19:08:27.259Z,25.80
2022-08-19T19:10:56.910Z,25.78
2022-08-19T19:13:28.524Z,25.77
2022-08-19T19:15:56.894Z,25.76
2022-08-19T19:18:25.101Z,25.75
2022-08-19T19:20:53.017Z,25.65
2022-08-19T19:23:21.605Z,25.71
2022-08-19T19:25:52.876Z,25.53
2022-08-19T19:28:25.306Z,25.69
2022-08-19T19:30:57.557Z,25.68
2022-08-19T19:33:25.675Z,25.65
2022-08-19T19:35:53.515Z,25.63
2022-08-19T19:38:21.716Z,25.59
2022-08-19T19:40:49.612Z,25.61
2022-08-19T19:43:18.402Z,25.59
2022-08-19T19:45:48.265Z,25.57
2022-08-19T19:48:17.706Z,25.54
2022-08-19T19:50:46.534Z,25.44
2022-08-19T19:53:24.115Z,25.39
2022-08-19T19:55:58.760Z,25.28
2022-08-19T19:58:29.154Z,25.31
2022-08-19T20:00:58.562Z,25.38
2022-08-19T20:03:30.064Z,25.39
2022-08-19T20:05:59.168Z,25.36
2022-08-19T20:08:45.104Z,25.32
2022-08-19T20:11:17.513Z,25.32
2022-08-19T20:13:45.357Z,25.31
2022-08-19T20:16:13.378Z,25.29
2022-08-19T20:18:43.633Z,25.29
2022-08-19T20:21:12.330Z,25.29
2022-08-19T20:23:40.124Z,25.21
2022-08-19T20:26:08.522Z,25.15
2022-08-19T20:28:58.158Z,25.00
2022-08-19T20:31:29.843Z,25.08
2022-08-19T20:34:05.625Z,25.04
2022-08-19T20:36:34.372Z,25.01
2022-08-19T20:39:02.247Z,24.87
2022-08-19T20:41:30.191Z,24.87
2022-08-19T20:43:58.479Z,24.87
2022-08-19T20:46:29.047Z,24.83
2022-08-19T20:48:58.580Z,24.83
2022-08-19T20:51:30.820Z,24.81
2022-08-19T20:53:59.356Z,24.83
2022-08-19T20:56:27.470Z,24.83
2022-08-19T20:58:59.831Z,24.84
2022-08-19T21:01:28.072Z,24.63
2022-08-19T21:03:55.913Z,24.76
2022-08-19T21:06:23.742Z,24.64
2022-08-19T21:08:54.411Z,24.67
2022-08-19T21:11:22.611Z,24.68
2022-08-19T21:13:50.507Z,24.66
2022-08-19T21:16:22.043Z,24.64
2022-08-19T21:18:49.883Z,24.64
2022-08-19T21:21:17.784Z,24.43
2022-08-19T21:23:45.596Z,24.45
2022-08-19T21:26:14.773Z,24.44
2022-08-19T21:28:42.588Z,24.37
2022-08-19T21:31:11.464Z,24.33
2022-08-19T21:33:39.806Z,24.31
2022-08-19T21:36:09.477Z,24.30
2022-08-19T21:38:37.834Z,24.27
2022-08-19T21:41:06.880Z,24.23
2022-08-19T21:43:36.899Z,24.20
2022-08-19T21:46:05.262Z,24.28
2022-08-19T21:48:33.115Z,24.30
2022-08-19T21:51:00.933Z,24.29
2022-08-19T21:53:31.503Z,24.24
2022-08-19T21:56:01.072Z,24.24
2022-08-19T21:58:30.063Z,24.27
2022-08-19T22:01:01.443Z,24.27
2022-08-19T22:03:30.915Z,24.28
2022-08-19T22:06:02.003Z,24.25
2022-08-19T22:08:31.402Z,24.26
2022-08-19T22:11:03.044Z,24.28
2022-08-19T22:13:39.823Z,24.25
2022-08-19T22:16:10.553Z,24.27
2022-08-19T22:18:38.484Z,24.26
2022-08-19T22:21:11.284Z,24.26
2022-08-19T22:23:40.095Z,24.23
2022-08-19T22:26:08.093Z,24.24
2022-08-19T22:28:35.904Z,24.18
2022-08-19T22:31:04.198Z,24.12
2022-08-19T22:33:33.548Z,24.14
2022-08-19T22:36:01.789Z,24.17
2022-08-19T22:38:29.617Z,24.19
2022-08-19T22:40:57.504Z,24.14
2022-08-19T22:43:28.485Z,24.12
2022-08-19T22:45:57.292Z,24.08
2022-08-19T22:48:29.635Z,24.16
2022-08-19T22:51:16.697Z,24.14
2022-08-19T22:53:47.962Z,24.11
2022-08-19T22:56:18.606Z,24.09
2022-08-19T22:58:50.208Z,24.10
2022-08-19T23:01:27.384Z,24.08
2022-08-19T23:03:58.909Z,24.04
2022-08-19T23:06:33.902Z,24.02
2022-08-19T23:09:04.711Z,23.99
2022-08-19T23:11:35.721Z,24.03
2022-08-19T23:14:08.745Z,24.02
2022-08-19T23:16:36.831Z,23.97
2022-08-19T23:19:04.987Z,23.98
2022-08-19T23:21:36.160Z,23.70
2022-08-19T23:24:04.643Z,23.92
2022-08-19T23:26:35.769Z,23.95
2022-08-19T23:29:22.830Z,23.91
2022-08-19T23:31:50.735Z,23.91
2022-08-19T23:34:18.599Z,23.92
2022-08-19T23:36:48.297Z,23.95
2022-08-19T23:39:16.238Z,23.90
2022-08-19T23:41:44.044Z,23.92
2022-08-19T23:44:14.713Z,23.93
2022-08-19T23:46:51.899Z,23.87
2022-08-19T23:49:22.643Z,23.92
2022-08-19T23:51:51.992Z,23.92
2022-08-19T23:54:19.844Z,23.90
2022-08-19T23:56:47.635Z,23.91
2022-08-19T23:59:15.598Z,23.87
